Time;durP1;ratioP1;P1;durP2;ratioP2;P2;SDS_P1;SDS_P2;PMS_P1;PMS_P2;Temp;Humidity;BMP_temperature;BMP_pressure;BME280_temperature;BME280_humidity;BME280_pressure;Samples;Min_cycle;Max_cycle;Signal;HPM_P1;HPM_P2
2022/03/06 00:02:05;;;;;;;20.95;11.63;;;0.10;92.10;;;;;;5090176;28;20198;-78
2022/03/06 00:04:31;;;;;;;21.73;10.70;;;0.00;92.40;;;;;;5073140;28;20251;-79
2022/03/06 00:06:57;;;;;;;18.00;9.67;;;0.10;92.70;;;;;;5072310;28;20849;-78
2022/03/06 00:09:23;;;;;;;18.70;9.90;;;0.10;92.60;;;;;;5090671;28;20208;-79
2022/03/06 00:11:50;;;;;;;19.27;10.00;;;0.20;92.50;;;;;;5089004;28;20455;-78
2022/03/06 00:14:15;;;;;;;22.23;11.55;;;0.10;92.20;;;;;;5095493;28;20185;-78
2022/03/06 00:16:41;;;;;;;16.57;9.73;;;0.00;92.30;;;;;;5097511;28;20271;-77
2022/03/06 00:19:07;;;;;;;16.87;9.80;;;-0.10;92.80;;;;;;5094094;28;20451;-80
2022/03/06 00:21:34;;;;;;;25.47;12.57;;;-0.20;93.30;;;;;;5094213;28;21020;-78
2022/03/06 00:24:00;;;;;;;22.17;10.80;;;-0.40;93.60;;;;;;5094512;28;20431;-79
2022/03/06 00:26:26;;;;;;;22.30;12.03;;;-0.50;94.30;;;;;;5094280;28;20284;-78
2022/03/06 00:28:52;;;;;;;18.63;11.37;;;-0.50;94.70;;;;;;5094531;28;20513;-78
2022/03/06 00:31:17;;;;;;;17.40;10.70;;;-0.40;94.90;;;;;;5077266;28;20206;-80
2022/03/06 00:33:43;;;;;;;17.13;10.60;;;-0.50;95.10;;;;;;5096086;28;20184;-78
2022/03/06 00:36:09;;;;;;;19.30;11.00;;;-0.30;95.30;;;;;;5093438;28;20186;-80
2022/03/06 00:38:34;;;;;;;19.10;10.73;;;-0.40;95.30;;;;;;5095494;28;20186;-79
2022/03/06 00:41:00;;;;;;;23.93;10.53;;;-0.40;95.50;;;;;;5094313;28;20202;-78
2022/03/06 00:43:26;;;;;;;17.07;10.10;;;-0.30;95.90;;;;;;5093850;28;20672;-79
2022/03/06 00:45:52;;;;;;;30.10;11.00;;;-0.40;95.80;;;;;;5077474;28;20457;-79
2022/03/06 00:48:17;;;;;;;23.33;11.47;;;-0.40;95.50;;;;;;5096094;28;20193;-80
2022/03/06 00:50:43;;;;;;;22.30;12.40;;;-0.50;95.90;;;;;;5076744;28;20178;-81
2022/03/06 00:53:09;;;;;;;20.70;10.67;;;-0.60;96.30;;;;;;5060188;28;20207;-80
2022/03/06 00:55:35;;;;;;;18.02;10.50;;;-0.60;96.50;;;;;;5077136;28;20192;-81
2022/03/06 00:58:06;;;;;;;16.27;10.40;;;-0.70;96.60;;;;;;5078075;28;20196;-82
2022/03/06 01:00:39;;;;;;;19.17;10.32;;;-0.60;97.10;;;;;;5078101;28;20509;-80
2022/03/06 01:03:10;;;;;;;19.40;10.95;;;-0.40;96.90;;;;;;5097991;28;20181;-82
2022/03/06 01:05:35;;;;;;;15.63;9.35;;;-0.30;96.50;;;;;;5081177;28;20186;-83
2022/03/06 01:08:03;;;;;;;18.60;10.10;;;-0.20;96.40;;;;;;5080976;28;20215;-83
2022/03/06 01:10:28;;;;;;;16.60;9.88;;;-0.20;96.10;;;;;;5097771;28;20185;-81
2022/03/06 01:12:54;;;;;;;18.77;9.93;;;-0.20;96.10;;;;;;5080417;28;20190;-81
2022/03/06 01:15:20;;;;;;;19.73;10.50;;;-0.20;96.10;;;;;;5079008;28;20184;-80
2022/03/06 01:17:46;;;;;;;19.67;10.98;;;-0.10;96.10;;;;;;5097058;28;20188;-80
2022/03/06 01:20:11;;;;;;;19.37;10.50;;;-0.10;95.90;;;;;;5079517;28;20210;-80
2022/03/06 01:22:37;;;;;;;18.57;10.27;;;0.00;95.70;;;;;;5079161;28;20207;-80
2022/03/06 01:25:05;;;;;;;14.93;9.33;;;0.00;95.60;;;;;;5093679;28;20201;-78
2022/03/06 01:27:31;;;;;;;15.35;9.00;;;0.00;95.70;;;;;;5095600;28;20472;-81
2022/03/06 01:29:57;;;;;;;21.70;10.25;;;0.00;95.90;;;;;;5093687;28;20183;-81
2022/03/06 01:32:22;;;;;;;20.27;11.47;;;0.10;95.70;;;;;;5061069;28;20304;-79
2022/03/06 01:34:48;;;;;;;15.27;10.30;;;0.00;95.60;;;;;;5076832;28;20735;-82
2022/03/06 01:37:14;;;;;;;17.43;10.23;;;0.00;95.70;;;;;;5076358;28;20864;-81
2022/03/06 01:39:39;;;;;;;18.53;10.20;;;0.10;95.80;;;;;;5074993;28;20565;-81
2022/03/06 01:42:05;;;;;;;18.67;10.10;;;0.10;95.80;;;;;;5092172;28;20198;-81
2022/03/06 01:44:31;;;;;;;19.53;10.30;;;0.00;95.80;;;;;;5092181;28;20189;-80
2022/03/06 01:46:56;;;;;;;19.97;10.40;;;-0.10;95.90;;;;;;5092995;28;20204;-80
2022/03/06 01:49:22;;;;;;;23.90;10.87;;;-0.10;96.50;;;;;;5077299;28;20197;-80
2022/03/06 01:51:48;;;;;;;17.17;10.73;;;-0.20;96.40;;;;;;5077035;28;20201;-81
2022/03/06 01:54:14;;;;;;;18.80;11.17;;;-0.10;96.90;;;;;;5093946;28;20199;-79
2022/03/06 01:56:41;;;;;;;21.17;11.60;;;-0.20;96.70;;;;;;5092905;28;20184;-80
2022/03/06 01:59:08;;;;;;;16.38;9.80;;;-0.30;96.70;;;;;;5094030;28;20270;-81
2022/03/06 02:01:34;;;;;;;20.63;11.25;;;-0.30;96.90;;;;;;5098716;28;20198;-82
2022/03/06 02:04:00;;;;;;;23.43;13.00;;;-0.40;97.00;;;;;;5093028;28;20244;-77
2022/03/06 02:06:26;;;;;;;20.50;11.73;;;-0.60;97.40;;;;;;5075468;28;20261;-79
2022/03/06 02:08:52;;;;;;;22.08;11.50;;;-0.70;97.70;;;;;;5091987;28;20387;-80
2022/03/06 02:11:18;;;;;;;19.73;11.03;;;-0.70;98.00;;;;;;5091652;28;20210;-83
2022/03/06 02:13:45;;;;;;;18.53;11.47;;;-0.80;97.80;;;;;;5078280;28;20455;-80
2022/03/06 02:16:11;;;;;;;19.85;11.02;;;-0.80;98.30;;;;;;5078214;28;20428;-81
2022/03/06 02:18:37;;;;;;;22.70;10.93;;;-0.90;98.30;;;;;;5094746;28;20738;-80
2022/03/06 02:21:11;;;;;;;21.77;10.68;;;-1.00;98.50;;;;;;5093706;28;20308;-80
2022/03/06 02:23:37;;;;;;;21.67;12.00;;;-1.00;99.20;;;;;;5094782;28;20272;-81
2022/03/06 02:26:05;;;;;;;16.17;10.43;;;-1.00;99.00;;;;;;5096163;28;20215;-81
2022/03/06 02:28:31;;;;;;;20.15;12.20;;;-1.10;99.00;;;;;;5094166;28;20238;-80
2022/03/06 02:30:57;;;;;;;18.10;10.65;;;-1.00;99.10;;;;;;5094621;28;20244;-81
2022/03/06 02:33:23;;;;;;;21.10;11.30;;;-1.10;99.40;;;;;;5077438;28;20193;-81
2022/03/06 02:35:48;;;;;;;18.70;10.90;;;-1.10;99.60;;;;;;5074277;28;20186;-80
2022/03/06 02:38:14;;;;;;;20.40;12.30;;;-1.20;99.90;;;;;;5091428;28;20187;-78
2022/03/06 02:40:42;;;;;;;22.53;11.80;;;-1.10;99.90;;;;;;5074166;28;21301;-80
2022/03/06 02:43:10;;;;;;;30.45;15.55;;;-1.10;99.90;;;;;;5091401;28;20433;-80
2022/03/06 02:45:39;;;;;;;23.30;11.95;;;-1.30;99.90;;;;;;5091100;28;20197;-79
2022/03/06 02:48:05;;;;;;;23.23;12.00;;;-1.40;99.90;;;;;;5090221;28;20255;-78
2022/03/06 02:50:33;;;;;;;16.60;10.48;;;-1.50;99.90;;;;;;5091540;28;20180;-78
2022/03/06 02:53:02;;;;;;;19.92;12.25;;;-1.50;99.90;;;;;;5073871;28;20190;-77
2022/03/06 02:55:28;;;;;;;19.23;10.43;;;-1.60;99.90;;;;;;5073759;28;20201;-78
2022/03/06 02:57:54;;;;;;;20.00;10.70;;;-1.60;99.90;;;;;;5090880;28;20182;-78
2022/03/06 03:00:22;;;;;;;18.37;10.47;;;-1.70;99.90;;;;;;5092151;28;20166;-80
2022/03/06 03:02:49;;;;;;;20.83;11.05;;;-1.70;99.90;;;;;;5090654;28;20439;-77
2022/03/06 03:05:16;;;;;;;18.55;10.50;;;-1.80;99.90;;;;;;5091813;28;20551;-79
2022/03/06 03:07:44;;;;;;;18.73;10.98;;;-1.80;99.90;;;;;;5092123;28;20317;-78
2022/03/06 03:10:13;;;;;;;17.58;10.38;;;-1.80;99.90;;;;;;5089966;28;20187;-80
2022/03/06 03:12:40;;;;;;;23.50;12.13;;;-1.80;99.90;;;;;;5090473;28;20210;-79
2022/03/06 03:15:07;;;;;;;20.45;11.68;;;-1.90;99.90;;;;;;5074344;28;20197;-79
2022/03/06 03:17:33;;;;;;;21.30;11.73;;;-1.80;99.90;;;;;;5090935;28;20191;-79
2022/03/06 03:19:59;;;;;;;24.90;12.37;;;-1.90;99.90;;;;;;5097056;28;20652;-80
2022/03/06 03:22:24;;;;;;;22.00;12.43;;;-1.90;99.90;;;;;;5075771;28;20199;-81
2022/03/06 03:24:50;;;;;;;21.67;12.60;;;-1.90;99.90;;;;;;5090570;28;20299;-82
2022/03/06 03:27:16;;;;;;;21.73;11.60;;;-1.90;99.90;;;;;;5092709;28;20207;-81
2022/03/06 03:29:41;;;;;;;18.80;11.00;;;-1.80;99.90;;;;;;5072764;28;20182;-81
2022/03/06 03:32:07;;;;;;;22.07;12.20;;;-1.80;99.90;;;;;;5072823;28;20225;-81
2022/03/06 03:34:33;;;;;;;22.00;11.40;;;-1.80;99.90;;;;;;5094985;28;20624;-78
2022/03/06 03:36:59;;;;;;;24.27;12.30;;;-1.80;99.90;;;;;;5099159;28;20261;-79
2022/03/06 03:39:24;;;;;;;20.93;10.90;;;-1.80;99.90;;;;;;5097593;28;20183;-78
2022/03/06 03:41:50;;;;;;;24.00;12.13;;;-1.70;99.90;;;;;;5096691;28;20460;-78
2022/03/06 03:44:16;;;;;;;21.17;12.37;;;-1.70;99.90;;;;;;5091599;28;20531;-79
2022/03/06 03:46:41;;;;;;;20.10;11.40;;;-1.70;99.90;;;;;;5071885;28;20695;-78
2022/03/06 03:49:07;;;;;;;21.50;11.30;;;-1.70;99.90;;;;;;5093640;28;20723;-79
2022/03/06 03:51:33;;;;;;;19.87;10.77;;;-1.80;99.90;;;;;;5077540;28;20208;-79
2022/03/06 03:53:59;;;;;;;21.17;12.20;;;-1.80;99.90;;;;;;5095157;28;20193;-78
2022/03/06 03:56:24;;;;;;;22.57;11.60;;;-1.90;99.90;;;;;;5096907;28;20178;-78
2022/03/06 03:58:50;;;;;;;24.43;13.87;;;-1.90;99.90;;;;;;5080303;28;20265;-80
2022/03/06 04:01:17;;;;;;;24.38;12.40;;;-2.00;99.90;;;;;;5098321;28;20718;-79
2022/03/06 04:03:43;;;;;;;23.13;13.40;;;-2.00;99.90;;;;;;5081005;28;20205;-79
2022/03/06 04:06:09;;;;;;;23.75;12.90;;;-2.00;99.90;;;;;;5099636;28;20804;-78
2022/03/06 04:08:35;;;;;;;23.93;13.37;;;-2.00;99.90;;;;;;5097496;28;20325;-79
2022/03/06 04:11:01;;;;;;;26.27;13.17;;;-2.10;99.90;;;;;;5092867;28;20195;-79
2022/03/06 04:13:27;;;;;;;22.90;12.57;;;-2.10;99.90;;;;;;5093602;28;20184;-79
2022/03/06 04:15:54;;;;;;;21.05;12.32;;;-2.20;99.90;;;;;;5095066;28;20423;-82
2022/03/06 04:18:20;;;;;;;22.55;12.13;;;-2.20;99.90;;;;;;5093686;28;20731;-79
2022/03/06 04:20:45;;;;;;;23.63;12.60;;;-2.20;99.90;;;;;;5090014;28;20178;-78
2022/03/06 04:23:11;;;;;;;23.33;11.87;;;-2.30;99.90;;;;;;5088751;28;20973;-79
2022/03/06 04:25:36;;;;;;;24.00;12.30;;;-2.40;99.90;;;;;;5090279;28;20182;-79
2022/03/06 04:28:03;;;;;;;23.03;12.30;;;-2.40;99.90;;;;;;5089564;28;20214;-81
2022/03/06 04:30:30;;;;;;;24.92;13.43;;;-2.40;99.90;;;;;;5090913;28;20191;-78
2022/03/06 04:32:56;;;;;;;21.20;13.10;;;-2.40;99.90;;;;;;5093473;28;20182;-77
2022/03/06 04:35:22;;;;;;;23.33;12.88;;;-2.50;99.90;;;;;;5091117;28;20267;-81
2022/03/06 04:37:48;;;;;;;23.27;12.60;;;-2.50;99.90;;;;;;5090894;28;20276;-79
2022/03/06 04:40:13;;;;;;;21.20;11.43;;;-2.40;99.90;;;;;;5090440;28;20435;-80
2022/03/06 04:42:40;;;;;;;22.40;12.10;;;-2.40;99.90;;;;;;5072715;28;20202;-77
2022/03/06 04:45:06;;;;;;;21.30;12.27;;;-2.50;99.90;;;;;;5090040;28;20425;-77
2022/03/06 04:47:32;;;;;;;20.25;11.02;;;-2.50;99.90;;;;;;5089258;28;20214;-75
2022/03/06 04:49:58;;;;;;;19.50;11.77;;;-2.50;99.90;;;;;;5088434;28;20236;-73
2022/03/06 04:52:24;;;;;;;20.30;11.80;;;-2.60;99.90;;;;;;5088572;28;20259;-74
2022/03/06 04:54:50;;;;;;;19.88;11.70;;;-2.70;99.90;;;;;;5088256;28;20428;-74
2022/03/06 04:57:15;;;;;;;22.10;12.20;;;-2.70;99.90;;;;;;5088542;28;20187;-74
2022/03/06 04:59:41;;;;;;;21.87;11.83;;;-2.60;99.90;;;;;;5091412;28;20651;-74
2022/03/06 05:02:06;;;;;;;19.30;11.73;;;-2.70;99.90;;;;;;5092264;28;20209;-76
2022/03/06 05:04:32;;;;;;;21.50;12.20;;;-2.70;99.90;;;;;;5090726;28;20195;-74
2022/03/06 05:06:58;;;;;;;25.13;13.00;;;-2.70;99.90;;;;;;5092106;28;20206;-73
2022/03/06 05:09:24;;;;;;;22.53;12.90;;;-2.80;99.90;;;;;;5092002;28;20188;-74
2022/03/06 05:11:49;;;;;;;21.50;12.40;;;-2.80;99.90;;;;;;5090573;28;20209;-75
2022/03/06 05:14:16;;;;;;;26.00;13.57;;;-2.90;99.90;;;;;;5092120;28;20264;-74
2022/03/06 05:16:42;;;;;;;23.70;13.63;;;-2.90;99.90;;;;;;5091988;28;20182;-75
2022/03/06 05:19:07;;;;;;;26.60;13.97;;;-2.90;99.90;;;;;;5091875;28;20179;-75
2022/03/06 05:21:33;;;;;;;24.67;12.70;;;-2.90;99.90;;;;;;5091546;28;20577;-75
2022/03/06 05:23:59;;;;;;;19.33;11.30;;;-2.90;99.90;;;;;;5091740;28;20999;-74
2022/03/06 05:26:24;;;;;;;20.30;11.83;;;-2.90;99.90;;;;;;5090181;28;20202;-75
2022/03/06 05:28:50;;;;;;;22.97;12.33;;;-3.00;99.90;;;;;;5090147;28;20235;-75
2022/03/06 05:31:16;;;;;;;23.50;12.13;;;-3.10;99.90;;;;;;5091723;28;20199;-74
2022/03/06 05:33:41;;;;;;;19.13;11.33;;;-3.20;99.90;;;;;;5091418;28;20178;-74
2022/03/06 05:36:07;;;;;;;19.80;11.80;;;-3.20;99.90;;;;;;5091670;28;20177;-74
2022/03/06 05:38:33;;;;;;;22.77;11.50;;;-3.30;99.90;;;;;;5091321;28;20186;-73
2022/03/06 05:40:58;;;;;;;20.40;11.37;;;-3.40;99.90;;;;;;5091304;28;20206;-75
2022/03/06 05:43:24;;;;;;;22.90;12.80;;;-3.30;99.90;;;;;;5089879;28;20179;-74
2022/03/06 05:45:51;;;;;;;29.50;13.27;;;-3.30;99.90;;;;;;5090934;28;20263;-81
2022/03/06 05:48:18;;;;;;;36.75;16.85;;;-3.30;99.90;;;;;;5091934;28;20543;-77
2022/03/06 05:50:44;;;;;;;37.80;17.05;;;-3.30;99.90;;;;;;5091026;28;20255;-75
2022/03/06 05:53:09;;;;;;;27.00;14.30;;;-3.40;99.90;;;;;;5089186;28;20292;-75
2022/03/06 05:55:35;;;;;;;24.77;13.10;;;-3.30;99.90;;;;;;5093404;28;20182;-77
2022/03/06 05:58:01;;;;;;;35.67;14.60;;;-3.40;99.90;;;;;;5091806;28;20439;-78
2022/03/06 06:00:28;;;;;;;24.13;13.57;;;-3.30;99.90;;;;;;5091414;28;21009;-75
2022/03/06 06:02:55;;;;;;;23.05;12.15;;;-3.30;99.90;;;;;;5091202;28;20252;-76
2022/03/06 06:05:22;;;;;;;25.02;13.82;;;-3.30;99.90;;;;;;5090649;28;20175;-76
2022/03/06 06:07:49;;;;;;;22.77;13.07;;;-3.20;99.90;;;;;;5088959;28;20630;-75
2022/03/06 06:10:15;;;;;;;30.58;12.80;;;-3.10;99.90;;;;;;5089778;28;20518;-76
2022/03/06 06:12:41;;;;;;;22.63;11.98;;;-3.20;99.90;;;;;;5090406;28;20198;-75
2022/03/06 06:15:08;;;;;;;27.13;15.52;;;-3.10;99.90;;;;;;5090560;28;20515;-74
2022/03/06 06:17:35;;;;;;;35.28;16.63;;;-3.20;99.90;;;;;;5090683;28;20186;-78
2022/03/06 06:20:01;;;;;;;44.83;20.25;;;-3.20;99.90;;;;;;5089979;28;20182;-79
2022/03/06 06:22:28;;;;;;;28.50;14.38;;;-3.10;99.90;;;;;;5090310;28;20567;-79
2022/03/06 06:24:55;;;;;;;23.42;12.82;;;-3.10;99.90;;;;;;5089438;28;20181;-77
2022/03/06 06:27:21;;;;;;;23.40;12.38;;;-3.10;99.90;;;;;;5089265;28;20206;-78
2022/03/06 06:29:46;;;;;;;27.93;13.07;;;-3.00;99.90;;;;;;5092709;28;20280;-79
2022/03/06 06:32:13;;;;;;;24.37;12.33;;;-2.90;99.90;;;;;;5091001;28;20491;-75
2022/03/06 06:34:38;;;;;;;23.33;13.40;;;-2.90;99.90;;;;;;5090340;28;20194;-76
2022/03/06 06:37:04;;;;;;;23.90;13.27;;;-2.90;99.90;;;;;;5090449;28;20553;-76
2022/03/06 06:39:30;;;;;;;28.80;13.47;;;-2.80;99.90;;;;;;5090607;28;20182;-76
2022/03/06 06:41:56;;;;;;;22.83;12.77;;;-2.70;99.90;;;;;;5088968;28;20447;-76
2022/03/06 06:44:21;;;;;;;24.17;14.00;;;-2.80;99.90;;;;;;5090503;28;20184;-76
2022/03/06 06:46:47;;;;;;;26.50;13.37;;;-2.70;99.90;;;;;;5090652;28;20281;-79
2022/03/06 06:49:13;;;;;;;22.97;13.23;;;-2.60;99.90;;;;;;5093603;28;20648;-78
2022/03/06 06:51:38;;;;;;;30.17;14.83;;;-2.40;99.90;;;;;;5094222;28;20198;-74
2022/03/06 06:54:05;;;;;;;21.53;12.80;;;-2.50;99.90;;;;;;5089930;28;20934;-76
2022/03/06 06:56:31;;;;;;;27.80;14.20;;;-2.30;99.90;;;;;;5090022;28;20609;-77
2022/03/06 06:58:57;;;;;;;24.77;13.65;;;-1.90;99.90;;;;;;5088970;28;20195;-76
2022/03/06 07:01:24;;;;;;;22.33;12.20;;;-1.60;99.90;;;;;;5089904;28;20207;-76
2022/03/06 07:03:50;;;;;;;27.50;12.80;;;-1.40;99.90;;;;;;5090276;28;20866;-76
2022/03/06 07:06:16;;;;;;;25.90;13.20;;;-1.20;99.90;;;;;;5089805;28;20281;-76
2022/03/06 07:08:41;;;;;;;29.23;14.63;;;-0.90;99.90;;;;;;5088816;28;20179;-77
2022/03/06 07:11:08;;;;;;;22.70;14.10;;;-0.80;99.90;;;;;;5090337;28;20200;-75
2022/03/06 07:13:34;;;;;;;23.50;14.40;;;-0.10;99.90;;;;;;5090414;28;20220;-76
2022/03/06 07:15:59;;;;;;;22.15;13.02;;;0.20;99.10;;;;;;5090231;28;20705;-77
2022/03/06 07:18:25;;;;;;;21.97;13.40;;;0.70;98.60;;;;;;5089700;28;20270;-75
2022/03/06 07:20:51;;;;;;;17.80;11.83;;;1.10;97.20;;;;;;5087879;28;20646;-76
2022/03/06 07:23:16;;;;;;;20.47;12.90;;;1.50;96.30;;;;;;5087202;28;20185;-77
2022/03/06 07:25:42;;;;;;;22.37;14.50;;;2.00;95.50;;;;;;5089336;28;20291;-76
2022/03/06 07:28:08;;;;;;;25.00;15.20;;;2.20;94.60;;;;;;5087652;28;20208;-77
2022/03/06 07:30:34;;;;;;;25.30;14.37;;;2.40;94.40;;;;;;5089277;28;20906;-76
2022/03/06 07:33:00;;;;;;;25.95;15.60;;;2.70;93.80;;;;;;5089325;28;20718;-77
2022/03/06 07:35:27;;;;;;;31.88;16.40;;;2.90;93.40;;;;;;5089275;28;20205;-76
2022/03/06 07:37:53;;;;;;;24.08;14.05;;;3.20;93.00;;;;;;5089314;28;20920;-75
2022/03/06 07:40:20;;;;;;;30.23;14.57;;;3.40;92.40;;;;;;5089025;28;20189;-75
2022/03/06 07:42:47;;;;;;;27.80;16.95;;;3.70;91.80;;;;;;5087248;28;20462;-76
2022/03/06 07:45:13;;;;;;;24.90;13.93;;;3.70;91.00;;;;;;5088756;28;20206;-76
2022/03/06 07:47:39;;;;;;;21.63;12.57;;;3.60;91.30;;;;;;5088816;28;20215;-76
2022/03/06 07:50:07;;;;;;;22.13;13.90;;;3.70;90.70;;;;;;5088743;28;20419;-76
2022/03/06 07:52:34;;;;;;;24.67;14.17;;;3.80;90.40;;;;;;5088832;28;20445;-76
2022/03/06 07:55:00;;;;;;;21.88;14.40;;;3.70;90.60;;;;;;5088885;28;20496;-76
2022/03/06 07:57:25;;;;;;;22.10;14.47;;;3.40;90.50;;;;;;5089000;28;20192;-76
2022/03/06 07:59:51;;;;;;;23.23;14.73;;;3.40;91.00;;;;;;5087575;28;20790;-77
2022/03/06 08:02:17;;;;;;;24.63;13.80;;;3.30;90.90;;;;;;5089000;28;20571;-77
2022/03/06 08:04:43;;;;;;;28.00;14.47;;;3.10;91.00;;;;;;5088870;28;20431;-77
2022/03/06 08:07:08;;;;;;;19.90;13.40;;;3.30;91.80;;;;;;5087461;28;20513;-77
2022/03/06 08:09:34;;;;;;;21.73;13.63;;;3.80;91.20;;;;;;5088870;28;20212;-77
2022/03/06 08:12:00;;;;;;;22.33;13.30;;;4.20;90.00;;;;;;5087253;28;20202;-77
2022/03/06 08:14:27;;;;;;;26.30;13.23;;;4.70;88.90;;;;;;5087339;28;20180;-77
2022/03/06 08:16:53;;;;;;;25.55;14.13;;;4.90;88.00;;;;;;5088992;28;20426;-77
2022/03/06 08:19:19;;;;;;;23.17;13.37;;;4.80;87.20;;;;;;5070782;28;20313;-77
2022/03/06 08:21:45;;;;;;;22.83;14.50;;;5.20;86.50;;;;;;5088671;28;20440;-77
2022/03/06 08:24:11;;;;;;;22.73;14.30;;;5.40;84.20;;;;;;5087328;28;20224;-77
2022/03/06 08:26:37;;;;;;;26.30;14.80;;;5.60;85.10;;;;;;5087692;28;20241;-77
2022/03/06 08:29:02;;;;;;;23.80;14.70;;;5.90;84.00;;;;;;5088617;28;20227;-76
2022/03/06 08:31:28;;;;;;;24.60;14.80;;;6.00;82.60;;;;;;5087099;28;20209;-77
2022/03/06 08:33:54;;;;;;;24.93;15.07;;;6.40;82.20;;;;;;5090323;28;20183;-77
2022/03/06 08:36:20;;;;;;;22.17;13.57;;;6.40;80.00;;;;;;5074331;28;20548;-75
2022/03/06 08:38:46;;;;;;;21.77;14.70;;;6.70;81.50;;;;;;5095940;28;20716;-76
2022/03/06 08:41:12;;;;;;;24.77;16.30;;;6.70;78.90;;;;;;5099456;28;20444;-76
2022/03/06 08:43:37;;;;;;;21.40;13.40;;;6.90;78.20;;;;;;5092844;28;20192;-76
2022/03/06 08:46:03;;;;;;;21.77;13.90;;;7.30;77.80;;;;;;5093001;28;20882;-76
2022/03/06 08:48:30;;;;;;;29.53;15.73;;;7.40;76.00;;;;;;5092392;28;20184;-75
2022/03/06 08:50:57;;;;;;;22.70;14.53;;;7.40;76.00;;;;;;5092378;28;20278;-76
2022/03/06 08:53:22;;;;;;;23.30;14.93;;;7.40;74.00;;;;;;5092181;28;20424;-76
2022/03/06 08:55:48;;;;;;;28.03;16.20;;;7.70;74.20;;;;;;5092361;28;20478;-76
2022/03/06 08:58:14;;;;;;;21.37;14.17;;;7.60;72.70;;;;;;5092082;28;20332;-76
2022/03/06 09:00:39;;;;;;;20.50;13.87;;;7.80;72.50;;;;;;5090870;28;20190;-77
2022/03/06 09:03:05;;;;;;;21.10;13.70;;;8.00;71.40;;;;;;5092216;28;20240;-76
2022/03/06 09:05:31;;;;;;;23.50;15.03;;;8.60;70.10;;;;;;5090626;28;20544;-76
2022/03/06 09:07:56;;;;;;;22.07;14.30;;;8.80;66.90;;;;;;5091346;28;20213;-76
2022/03/06 09:10:22;;;;;;;22.47;13.73;;;9.00;64.20;;;;;;5091611;28;20257;-76
2022/03/06 09:12:48;;;;;;;23.07;12.37;;;9.40;63.70;;;;;;5091284;28;20202;-76
2022/03/06 09:15:14;;;;;;;19.10;12.87;;;10.30;61.20;;;;;;5089832;28;20417;-76
2022/03/06 09:17:40;;;;;;;22.30;13.50;;;10.50;58.80;;;;;;5091506;28;20199;-76
2022/03/06 09:20:06;;;;;;;18.07;12.70;;;10.70;56.90;;;;;;5090937;28;20195;-76
2022/03/06 09:22:32;;;;;;;18.90;13.20;;;11.30;55.70;;;;;;5090731;28;20444;-77
2022/03/06 09:24:57;;;;;;;19.10;12.10;;;11.60;53.50;;;;;;5089531;28;20421;-77
2022/03/06 09:27:23;;;;;;;22.60;12.80;;;11.40;52.70;;;;;;5090745;28;20580;-76
2022/03/06 09:29:49;;;;;;;22.00;15.17;;;11.30;52.50;;;;;;5089146;28;20969;-76
2022/03/06 09:32:15;;;;;;;17.93;12.00;;;10.90;52.40;;;;;;5090245;28;20202;-76
2022/03/06 09:34:43;;;;;;;18.30;11.60;;;10.60;49.00;;;;;;5089727;28;20248;-76
2022/03/06 09:37:09;;;;;;;21.97;13.30;;;10.60;49.40;;;;;;5089705;28;20507;-76
2022/03/06 09:39:35;;;;;;;18.10;11.73;;;11.20;51.60;;;;;;5088567;28;20561;-77
2022/03/06 09:42:00;;;;;;;16.63;12.00;;;11.30;50.20;;;;;;5091016;28;20485;-76
2022/03/06 09:44:27;;;;;;;17.33;12.00;;;10.70;49.00;;;;;;5090377;28;20656;-76
2022/03/06 09:46:57;;;;;;;14.60;10.97;;;10.20;51.10;;;;;;5090027;28;20211;-77
2022/03/06 09:49:23;;;;;;;20.33;13.13;;;10.40;48.90;;;;;;5090785;28;20512;-76
2022/03/06 09:51:50;;;;;;;18.10;12.17;;;10.40;48.40;;;;;;5090139;28;20933;-76
2022/03/06 09:54:16;;;;;;;18.63;13.90;;;10.00;47.50;;;;;;5089883;28;20449;-77
2022/03/06 09:56:43;;;;;;;17.33;11.30;;;9.60;46.80;;;;;;5088894;28;20425;-77
2022/03/06 09:59:11;;;;;;;15.67;11.20;;;10.60;47.90;;;;;;5088996;28;20458;-77
2022/03/06 10:01:36;;;;;;;15.03;11.10;;;10.00;44.90;;;;;;5090307;28;20445;-78
2022/03/06 10:04:26;;;;;;;19.93;12.20;;;11.00;45.70;;;;;;5089010;28;20425;-77
2022/03/06 10:07:06;;;;;;;16.97;11.63;;;12.00;46.40;;;;;;5090593;28;20314;-77
2022/03/06 10:09:51;;;;;;;21.63;11.37;;;12.60;43.80;;;;;;5089625;28;20425;-77
2022/03/06 10:12:23;;;;;;;14.60;10.47;;;12.70;41.20;;;;;;5075105;28;20481;-77
2022/03/06 10:14:50;;;;;;;14.50;10.30;;;12.30;40.10;;;;;;5087918;28;20449;-78
2022/03/06 10:17:18;;;;;;;15.40;10.87;;;11.60;39.20;;;;;;5090333;28;20437;-78
2022/03/06 10:19:48;;;;;;;15.60;10.77;;;10.60;39.90;;;;;;5090454;28;20537;-78
2022/03/06 10:22:14;;;;;;;15.80;11.47;;;10.50;40.20;;;;;;5090031;28;20502;-78
2022/03/06 10:25:00;;;;;;;18.90;10.60;;;10.80;42.00;;;;;;5089891;28;20534;-76
2022/03/06 10:27:44;;;;;;;14.77;10.73;;;10.80;40.30;;;;;;5089501;28;20234;-75
2022/03/06 10:30:35;;;;;;;14.60;10.53;;;11.50;40.70;;;;;;5088951;28;20427;-77
2022/03/06 10:33:08;;;;;;;14.57;10.80;;;11.90;40.10;;;;;;5089541;28;20422;-75
2022/03/06 10:35:39;;;;;;;15.83;10.00;;;12.50;40.20;;;;;;5087964;28;20509;-75
2022/03/06 10:38:26;;;;;;;18.73;12.87;;;12.10;38.50;;;;;;5071245;28;20425;-77
2022/03/06 10:40:54;;;;;;;16.50;12.17;;;12.30;39.40;;;;;;5090431;28;20443;-78
2022/03/06 10:43:25;;;;;;;22.47;10.40;;;12.10;37.20;;;;;;5089408;28;20426;-77
2022/03/06 10:46:04;;;;;;;18.30;12.23;;;11.60;37.40;;;;;;5088009;28;20568;-76
2022/03/06 10:48:29;;;;;;;15.23;10.73;;;11.40;39.10;;;;;;5088866;28;20522;-77
2022/03/06 10:50:59;;;;;;;14.40;10.57;;;11.60;38.60;;;;;;5087805;28;21080;-80
2022/03/06 10:53:27;;;;;;;19.20;11.30;;;12.00;38.90;;;;;;5090192;28;20188;-77
2022/03/06 10:55:53;;;;;;;16.63;12.27;;;12.20;38.40;;;;;;5089021;28;20429;-77
2022/03/06 10:58:20;;;;;;;14.67;10.23;;;12.30;37.80;;;;;;5088773;28;20415;-76
2022/03/06 11:00:47;;;;;;;16.03;12.20;;;12.60;39.10;;;;;;5070070;28;20571;-76
2022/03/06 11:03:14;;;;;;;14.97;11.90;;;13.00;38.00;;;;;;5086896;28;20947;-76
2022/03/06 11:05:45;;;;;;;15.97;11.33;;;12.90;36.90;;;;;;5070523;28;20554;-76
2022/03/06 11:08:15;;;;;;;17.37;12.27;;;13.20;37.40;;;;;;5090518;28;20479;-77
2022/03/06 11:10:43;;;;;;;17.37;11.60;;;13.10;36.30;;;;;;5056131;28;20428;-76
2022/03/06 11:13:13;;;;;;;17.43;11.17;;;13.00;36.90;;;;;;5089142;28;21080;-74
2022/03/06 11:15:39;;;;;;;16.33;11.50;;;11.80;36.40;;;;;;5089309;28;20474;-74
2022/03/06 11:18:06;;;;;;;15.90;11.23;;;10.80;36.80;;;;;;5089540;28;20844;-78
2022/03/06 11:20:33;;;;;;;16.90;12.00;;;10.20;38.30;;;;;;5090612;28;20524;-78
2022/03/06 11:23:17;;;;;;;13.57;10.40;;;9.60;40.20;;;;;;5089486;28;20935;-77
2022/03/06 11:26:06;;;;;;;17.73;11.50;;;9.50;41.30;;;;;;5090032;28;20517;-77
2022/03/06 11:28:58;;;;;;;16.70;11.13;;;9.30;41.40;;;;;;5089423;28;20438;-78
2022/03/06 11:31:23;;;;;;;22.53;11.60;;;8.70;40.30;;;;;;5089552;28;20501;-78
2022/03/06 11:34:03;;;;;;;13.27;10.20;;;8.90;41.40;;;;;;5089142;28;20417;-76
2022/03/06 11:36:31;;;;;;;16.67;10.83;;;8.80;41.10;;;;;;5088842;28;20222;-76
2022/03/06 11:38:57;;;;;;;15.20;10.10;;;8.70;41.70;;;;;;5088539;28;20406;-76
2022/03/06 11:41:26;;;;;;;13.30;9.87;;;8.50;41.90;;;;;;5089034;28;20443;-77
2022/03/06 11:43:54;;;;;;;18.67;11.60;;;8.40;42.60;;;;;;5090659;28;21013;-78
2022/03/06 11:46:21;;;;;;;16.87;10.43;;;8.10;42.50;;;;;;5088924;28;20499;-77
2022/03/06 11:48:47;;;;;;;21.50;11.37;;;8.00;43.50;;;;;;5090174;28;20440;-80
2022/03/06 11:51:21;;;;;;;16.40;11.53;;;7.80;43.30;;;;;;5088720;28;20431;-77
2022/03/06 11:54:10;;;;;;;17.43;12.87;;;7.90;43.30;;;;;;5088508;28;20208;-78
2022/03/06 11:56:39;;;;;;;23.33;12.50;;;8.20;43.90;;;;;;5086912;28;20916;-77
2022/03/06 11:59:16;;;;;;;13.83;8.90;;;8.70;42.60;;;;;;5086602;28;20429;-78
2022/03/06 12:01:49;;;;;;;15.47;10.50;;;9.80;43.10;;;;;;5086139;28;20448;-78
2022/03/06 12:04:23;;;;;;;17.97;11.10;;;10.20;41.00;;;;;;5088160;28;21262;-78
2022/03/06 12:06:52;;;;;;;16.30;11.07;;;9.90;42.80;;;;;;5088093;28;20460;-78
2022/03/06 12:09:20;;;;;;;18.93;11.13;;;10.60;41.30;;;;;;5085661;28;20467;-77
2022/03/06 12:11:50;;;;;;;14.97;11.10;;;10.60;40.80;;;;;;5087168;28;20901;-77
2022/03/06 12:14:27;;;;;;;15.07;10.37;;;10.60;40.90;;;;;;5087438;28;20413;-77
2022/03/06 12:17:02;;;;;;;18.27;11.77;;;9.70;41.60;;;;;;5088246;28;20404;-78
2022/03/06 12:19:51;;;;;;;16.30;11.97;;;9.70;42.00;;;;;;5086305;28;20478;-78
2022/03/06 12:22:20;;;;;;;16.60;10.20;;;10.40;40.90;;;;;;5084677;28;20473;-78
2022/03/06 12:25:10;;;;;;;14.00;10.27;;;10.90;40.60;;;;;;5086558;28;20459;-78
2022/03/06 12:27:59;;;;;;;15.10;10.67;;;10.60;40.10;;;;;;5088512;28;20571;-77
2022/03/06 12:30:25;;;;;;;15.13;11.00;;;10.70;39.90;;;;;;5086633;28;20416;-77
2022/03/06 12:32:50;;;;;;;14.50;10.60;;;10.80;39.90;;;;;;5068241;28;20452;-77